Time;durP1;ratioP1;P1;durP2;ratioP2;P2;SDS_P1;SDS_P2;PMS_P1;PMS_P2;Temp;Humidity;BMP_temperature;BMP_pressure;BME280_temperature;BME280_humidity;BME280_pressure;Samples;Min_cycle;Max_cycle;Signal;HPM_P1;HPM_P2
2023/05/18 00:00:34;;;;;;;6.20;2.25;;;;;;;11.29;47.91;102455.41;4985798;28;20070;-35
2023/05/18 00:03:02;;;;;;;8.48;1.40;;;;;;;11.23;48.12;102443.31;4998563;28;20045;-35
2023/05/18 00:05:32;;;;;;;10.82;1.67;;;;;;;11.20;48.22;102443.41;4975854;28;20121;-36
2023/05/18 00:08:03;;;;;;;8.02;1.33;;;;;;;11.14;48.42;102440.97;4986094;28;20039;-36
2023/05/18 00:10:31;;;;;;;8.02;1.52;;;;;;;11.07;48.59;102445.56;4965618;28;20100;-36
2023/05/18 00:12:56;;;;;;;9.07;2.08;;;;;;;11.02;48.85;102451.91;4998414;28;20026;-35
2023/05/18 00:15:22;;;;;;;12.20;2.10;;;;;;;10.94;49.22;102463.56;4995081;28;20633;-36
2023/05/18 00:17:49;;;;;;;10.30;1.20;;;;;;;11.03;48.92;102464.16;4997299;28;20496;-35
2023/05/18 00:20:16;;;;;;;4.20;1.00;;;;;;;11.08;48.93;102467.53;4979231;28;20030;-36
2023/05/18 00:22:42;;;;;;;5.47;1.23;;;;;;;11.07;49.13;102471.06;4972408;28;20060;-36
2023/05/18 00:25:08;;;;;;;6.78;1.35;;;;;;;11.07;48.96;102471.91;5003587;28;20061;-35
2023/05/18 00:27:33;;;;;;;11.43;1.60;;;;;;;11.04;49.16;102471.16;4993477;28;20069;-36
2023/05/18 00:29:59;;;;;;;8.68;1.65;;;;;;;11.10;49.00;102469.19;4982603;28;20038;-35
2023/05/18 00:32:25;;;;;;;7.03;1.20;;;;;;;11.15;49.09;102469.03;4985644;28;20034;-36
2023/05/18 00:34:50;;;;;;;8.02;1.50;;;;;;;11.18;49.20;102476.00;4999445;28;20029;-35
2023/05/18 00:37:16;;;;;;;12.75;2.08;;;;;;;11.20;49.13;102472.38;4998328;28;20536;-36
2023/05/18 00:39:44;;;;;;;5.15;1.30;;;;;;;11.19;49.26;102475.94;4995170;28;20037;-35
2023/05/18 00:42:10;;;;;;;2.38;0.95;;;;;;;11.20;49.33;102475.03;4999059;28;20045;-35
2023/05/18 00:44:35;;;;;;;5.88;1.02;;;;;;;11.11;49.52;102478.81;4993484;28;20030;-37
2023/05/18 00:47:03;;;;;;;7.15;1.52;;;;;;;11.22;49.40;102481.09;4986688;28;20027;-36
2023/05/18 00:49:29;;;;;;;13.95;2.58;;;;;;;11.37;48.99;102476.25;4997822;28;20400;-35
2023/05/18 00:51:55;;;;;;;8.27;2.50;;;;;;;11.47;48.92;102477.66;4984600;28;20030;-35
2023/05/18 00:54:21;;;;;;;8.90;1.52;;;;;;;11.49;49.19;102481.09;5000345;28;20040;-35
2023/05/18 00:56:47;;;;;;;3.50;1.20;;;;;;;11.58;48.92;102487.84;4996848;28;20026;-35
2023/05/18 00:59:13;;;;;;;8.32;2.17;;;;;;;11.65;48.91;102483.22;4997654;28;20755;-35
2023/05/18 01:01:42;;;;;;;3.85;1.10;;;;;;;11.58;49.12;102483.41;4983866;28;20034;-36
2023/05/18 01:04:13;;;;;;;8.45;1.70;;;;;;;11.52;49.22;102486.28;5001212;28;20026;-35
2023/05/18 01:06:40;;;;;;;9.32;1.58;;;;;;;11.46;49.49;102482.97;4991785;28;20486;-35
2023/05/18 01:09:10;;;;;;;5.57;1.50;;;;;;;11.37;50.12;102486.78;5001412;28;20109;-36
2023/05/18 01:11:54;;;;;;;8.40;1.40;;;;;;;11.32;50.43;102491.34;4973055;28;20034;-35
2023/05/18 01:14:35;;;;;;;10.82;1.55;;;;;;;11.35;49.91;102493.88;4998522;28;20033;-35
2023/05/18 01:17:20;;;;;;;8.70;2.00;;;;;;;11.39;49.66;102503.41;4982771;28;20057;-35
2023/05/18 01:20:10;;;;;;;6.13;1.60;;;;;;;11.43;49.88;102500.63;4996944;28;20026;-35
2023/05/18 01:22:55;;;;;;;10.38;1.20;;;;;;;11.34;49.87;102500.94;4998070;28;20103;-35
2023/05/18 01:25:30;;;;;;;6.45;1.30;;;;;;;11.30;49.91;102499.31;5000067;28;20030;-35
2023/05/18 01:28:05;;;;;;;6.88;1.50;;;;;;;11.35;49.82;102505.25;5004585;28;20033;-36
2023/05/18 01:30:32;;;;;;;7.68;1.33;;;;;;;11.44;49.66;102498.84;4983177;28;20038;-36
2023/05/18 01:32:58;;;;;;;6.60;1.40;;;;;;;11.47;49.67;102506.63;4987836;28;20038;-36
2023/05/18 01:35:23;;;;;;;7.95;1.52;;;;;;;11.50;49.50;102498.63;4988349;28;20813;-36
2023/05/18 01:37:49;;;;;;;7.63;1.50;;;;;;;11.43;49.71;102497.97;4988074;28;20041;-35
2023/05/18 01:40:14;;;;;;;11.93;2.20;;;;;;;11.35;49.95;102509.69;4972655;28;20030;-35
2023/05/18 01:42:45;;;;;;;6.28;2.20;;;;;;;11.31;50.30;102502.78;4989607;28;20454;-35
2023/05/18 01:45:24;;;;;;;5.55;0.90;;;;;;;11.24;50.44;102499.50;5001808;28;20120;-36
2023/05/18 01:47:55;;;;;;;8.38;1.27;;;;;;;11.22;50.56;102498.69;5005199;28;20125;-37
2023/05/18 01:50:28;;;;;;;6.28;2.20;;;;;;;11.27;50.29;102505.50;5002803;28;20370;-36
2023/05/18 01:53:03;;;;;;;13.25;1.77;;;;;;;11.22;50.80;102499.56;5002601;28;20030;-36
2023/05/18 01:55:30;;;;;;;7.63;1.55;;;;;;;11.19;50.44;102512.81;5003956;28;20032;-36
2023/05/18 01:57:57;;;;;;;9.93;1.67;;;;;;;11.28;50.40;102507.25;4974474;28;20053;-36
2023/05/18 02:00:23;;;;;;;4.57;1.35;;;;;;;11.28;50.13;102522.22;4988680;28;20499;-36
2023/05/18 02:02:48;;;;;;;11.77;1.88;;;;;;;11.23;50.48;102517.09;4999322;28;20030;-36
2023/05/18 02:05:14;;;;;;;5.43;1.20;;;;;;;11.21;50.59;102513.63;4999256;28;20026;-35
2023/05/18 02:07:42;;;;;;;6.28;1.30;;;;;;;11.26;50.53;102510.84;4984484;28;20125;-36
2023/05/18 02:10:09;;;;;;;7.85;1.60;;;;;;;11.24;50.70;102508.28;4997317;28;20045;-36
2023/05/18 02:12:38;;;;;;;8.35;2.13;;;;;;;11.17;50.76;102519.91;4996925;28;20046;-36
2023/05/18 02:15:07;;;;;;;7.38;1.58;;;;;;;10.98;51.20;102511.72;4987758;28;20041;-37
2023/05/18 02:17:37;;;;;;;6.45;1.40;;;;;;;10.87;51.41;102512.06;4985763;28;20028;-36
2023/05/18 02:20:10;;;;;;;7.72;1.77;;;;;;;10.87;51.63;102519.97;5002831;28;20440;-36
2023/05/18 02:22:36;;;;;;;2.92;0.93;;;;;;;10.87;51.43;102505.94;4992219;28;20029;-36
2023/05/18 02:25:06;;;;;;;10.20;1.17;;;;;;;10.97;51.61;102518.75;4994804;28;20038;-35
2023/05/18 02:27:33;;;;;;;13.15;1.70;;;;;;;10.96;51.47;102510.91;4999518;28;20033;-36
2023/05/18 02:30:07;;;;;;;8.52;1.38;;;;;;;10.97;51.57;102510.84;5001099;28;20397;-35
2023/05/18 02:32:37;;;;;;;11.13;1.75;;;;;;;11.03;51.33;102519.47;5005335;28;20029;-36
2023/05/18 02:35:05;;;;;;;10.13;1.67;;;;;;;11.03;51.56;102512.47;5003139;28;20025;-36
2023/05/18 02:37:33;;;;;;;7.15;1.10;;;;;;;10.96;51.64;102509.16;4983163;28;20121;-35
2023/05/18 02:40:01;;;;;;;6.78;1.92;;;;;;;10.95;51.48;102514.44;4990274;28;20026;-37
2023/05/18 02:42:26;;;;;;;4.68;0.90;;;;;;;10.93;51.95;102519.78;5000278;28;20022;-36
2023/05/18 02:44:52;;;;;;;9.75;2.03;;;;;;;10.94;51.88;102523.25;4973821;28;20031;-36
2023/05/18 02:47:18;;;;;;;11.27;2.30;;;;;;;10.97;51.28;102525.81;4972455;28;20034;-36
2023/05/18 02:49:44;;;;;;;6.15;1.58;;;;;;;11.02;51.56;102525.66;4969757;28;20393;-36
2023/05/18 02:52:10;;;;;;;6.80;1.20;;;;;;;11.04;51.83;102529.13;4988166;28;20496;-36
2023/05/18 02:54:35;;;;;;;12.02;1.50;;;;;;;11.01;51.82;102526.56;4981665;28;20445;-36
2023/05/18 02:57:03;;;;;;;12.85;1.52;;;;;;;11.01;51.89;102523.94;4984189;28;20052;-36
2023/05/18 02:59:30;;;;;;;5.55;1.40;;;;;;;10.91;52.16;102524.22;4986776;28;20052;-36
2023/05/18 03:01:55;;;;;;;5.63;1.35;;;;;;;10.87;52.10;102530.50;4987304;28;20117;-37
2023/05/18 03:04:24;;;;;;;6.70;1.30;;;;;;;10.86;52.28;102526.13;4989950;28;20120;-35
2023/05/18 03:06:51;;;;;;;3.50;1.55;;;;;;;10.83;52.47;102532.38;5000119;28;20037;-36
2023/05/18 03:09:20;;;;;;;6.28;1.13;;;;;;;10.86;52.20;102533.19;5000446;28;20073;-35
2023/05/18 03:11:46;;;;;;;7.60;1.50;;;;;;;10.88;52.19;102540.13;4985356;28;20038;-36
2023/05/18 03:14:11;;;;;;;4.43;1.55;;;;;;;10.88;52.10;102536.63;4977784;28;20026;-36
2023/05/18 03:16:38;;;;;;;10.32;1.65;;;;;;;10.91;52.03;102540.03;4989214;28;20481;-37
2023/05/18 03:19:03;;;;;;;5.20;1.13;;;;;;;10.82;52.17;102535.91;4972026;28;20508;-36
2023/05/18 03:21:35;;;;;;;7.40;1.58;;;;;;;10.72;52.58;102539.72;5003208;28;20025;-35
2023/05/18 03:24:01;;;;;;;7.67;1.67;;;;;;;10.72;52.58;102538.84;4988145;28;20041;-35
2023/05/18 03:26:29;;;;;;;6.88;1.20;;;;;;;10.73;52.49;102530.91;4987495;28;20040;-36
2023/05/18 03:28:58;;;;;;;13.43;1.90;;;;;;;10.73;52.51;102537.94;4983357;28;20057;-36
2023/05/18 03:31:24;;;;;;;9.90;1.48;;;;;;;10.67;52.76;102537.19;4986118;28;20030;-36
2023/05/18 03:33:50;;;;;;;8.52;1.58;;;;;;;10.56;52.77;102535.81;4996955;28;20046;-35
2023/05/18 03:36:15;;;;;;;3.63;1.15;;;;;;;10.45;53.09;102542.22;4982351;28;20133;-36
2023/05/18 03:38:44;;;;;;;6.93;1.50;;;;;;;10.36;53.14;102542.47;4991711;28;20030;-35
2023/05/18 03:41:10;;;;;;;8.85;2.28;;;;;;;10.32;53.50;102541.69;4983749;28;20030;-36
2023/05/18 03:43:36;;;;;;;10.10;1.83;;;;;;;10.32;53.43;102541.69;4998888;28;20072;-36
2023/05/18 03:46:01;;;;;;;6.15;1.15;;;;;;;10.31;53.51;102549.63;4995784;28;20097;-36
2023/05/18 03:48:31;;;;;;;3.50;1.50;;;;;;;10.42;53.48;102557.25;4978664;28;20563;-35
2023/05/18 03:50:56;;;;;;;7.25;1.45;;;;;;;10.51;53.40;102562.28;4998322;28;20080;-36
2023/05/18 03:53:22;;;;;;;4.68;1.80;;;;;;;10.67;52.86;102562.69;4968165;28;20029;-36
2023/05/18 03:55:48;;;;;;;5.10;1.30;;;;;;;10.66;52.91;102561.81;4984862;28;20144;-36
2023/05/18 03:58:18;;;;;;;5.32;1.77;;;;;;;10.62;53.15;102565.47;4993965;28;20022;-36
2023/05/18 04:00:48;;;;;;;9.38;1.70;;;;;;;10.65;53.12;102568.00;4990879;28;20034;-35
2023/05/18 04:03:13;;;;;;;7.15;1.95;;;;;;;10.70;53.08;102572.25;4986528;28;20596;-36
2023/05/18 04:05:43;;;;;;;5.70;2.00;;;;;;;10.79;52.59;102572.84;4991736;28;20701;-36
2023/05/18 04:08:13;;;;;;;6.70;1.77;;;;;;;10.79;53.03;102574.63;4998081;28;20061;-36
2023/05/18 04:10:42;;;;;;;8.85;1.60;;;;;;;10.80;53.00;102579.00;4999953;28;20090;-36
2023/05/18 04:13:08;;;;;;;6.63;1.15;;;;;;;10.82;52.97;102579.78;4985784;28;20104;-36
2023/05/18 04:15:34;;;;;;;9.05;1.52;;;;;;;10.79;53.08;102577.28;4983141;28;20421;-36
2023/05/18 04:18:00;;;;;;;8.70;2.03;;;;;;;10.83;52.98;102582.41;5009343;28;20030;-36
2023/05/18 04:20:28;;;;;;;3.92;1.58;;;;;;;10.87;53.16;102582.31;4979674;28;20026;-36
2023/05/18 04:22:57;;;;;;;21.15;2.63;;;;;;;10.91;52.95;102578.66;4982037;28;20113;-36
2023/05/18 04:25:26;;;;;;;7.82;1.70;;;;;;;10.88;52.91;102587.53;4978874;28;20104;-36
2023/05/18 04:27:53;;;;;;;8.25;1.92;;;;;;;10.82;53.03;102587.69;4987788;28;20132;-36
2023/05/18 04:30:22;;;;;;;7.47;1.75;;;;;;;10.83;53.00;102590.28;5003862;28;20033;-36
2023/05/18 04:32:49;;;;;;;9.27;1.92;;;;;;;10.88;53.15;102591.94;4998928;28;20026;-36
2023/05/18 04:35:17;;;;;;;8.95;2.30;;;;;;;10.91;53.20;102590.06;5001336;28;20029;-36
2023/05/18 04:37:43;;;;;;;7.32;1.65;;;;;;;10.86;53.41;102597.22;5000828;28;20032;-36
2023/05/18 04:40:12;;;;;;;11.23;1.77;;;;;;;10.87;53.21;102591.06;4982752;28;20025;-35
2023/05/18 04:42:44;;;;;;;10.23;1.80;;;;;;;10.89;53.29;102594.53;5001499;28;20027;-35
2023/05/18 04:45:20;;;;;;;9.43;1.98;;;;;;;10.87;53.88;102601.59;5000499;28;20081;-35
2023/05/18 04:47:51;;;;;;;8.85;1.33;;;;;;;10.78;53.58;102607.13;4995484;28;20117;-37
2023/05/18 04:50:18;;;;;;;5.63;1.73;;;;;;;10.81;53.61;102596.53;4984119;28;20149;-36
2023/05/18 04:52:47;;;;;;;10.30;1.40;;;;;;;10.90;53.61;102596.25;4994356;28;20034;-36
2023/05/18 04:55:21;;;;;;;5.68;1.75;;;;;;;11.03;53.10;102593.25;4997430;28;20580;-36
2023/05/18 04:57:55;;;;;;;8.93;1.92;;;;;;;11.07;52.98;102597.53;4997614;28;20548;-36
2023/05/18 05:00:27;;;;;;;9.13;3.70;;;;;;;11.04;53.22;102597.59;5000873;28;20329;-36
2023/05/18 05:02:54;;;;;;;6.88;2.03;;;;;;;11.04;53.21;102608.13;4995290;28;20047;-36
2023/05/18 05:05:23;;;;;;;32.10;14.35;;;;;;;11.06;53.31;102607.19;5001813;28;20387;-36
2023/05/18 05:07:50;;;;;;;7.10;3.15;;;;;;;11.11;53.22;102607.91;4982333;28;20038;-36
2023/05/18 05:10:16;;;;;;;8.98;1.40;;;;;;;11.16;53.38;102607.75;4991484;28;20044;-36
2023/05/18 05:12:42;;;;;;;6.78;2.13;;;;;;;11.19;53.45;102609.47;4996599;28;20045;-36
2023/05/18 05:15:11;;;;;;;9.80;1.73;;;;;;;11.24;53.24;102611.03;4993926;28;20034;-36
2023/05/18 05:17:39;;;;;;;2.38;1.40;;;;;;;11.32;53.16;102613.44;4998258;28;20041;-36
2023/05/18 05:20:05;;;;;;;7.20;2.40;;;;;;;11.41;53.08;102615.78;4996743;28;20064;-36
2023/05/18 05:22:33;;;;;;;4.97;1.35;;;;;;;11.52;52.90;102626.00;4981959;28;20064;-36
2023/05/18 05:24:58;;;;;;;8.30;2.15;;;;;;;11.60;52.89;102623.13;4987917;28;20065;-36
2023/05/18 05:27:26;;;;;;;9.98;1.65;;;;;;;11.68;52.81;102617.59;4999480;28;20057;-36
2023/05/18 05:29:52;;;;;;;8.68;1.63;;;;;;;11.74;52.82;102622.66;5003990;28;20033;-36
2023/05/18 05:32:18;;;;;;;14.20;2.40;;;;;;;11.76;52.89;102622.63;4996175;28;20045;-36
2023/05/18 05:34:45;;;;;;;26.15;9.57;;;;;;;11.83;52.69;102627.66;4994444;28;20030;-36
2023/05/18 05:37:14;;;;;;;8.25;2.25;;;;;;;11.83;52.67;102619.72;4985649;28;20063;-36
2023/05/18 05:39:45;;;;;;;12.32;2.65;;;;;;;11.86;52.64;102622.28;4982851;28;20056;-36
2023/05/18 05:42:10;;;;;;;11.02;1.88;;;;;;;11.83;52.86;102630.28;4996640;28;20025;-36
2023/05/18 05:44:39;;;;;;;7.80;2.92;;;;;;;11.80;52.93;102627.75;4982853;28;20033;-35
2023/05/18 05:47:08;;;;;;;9.52;2.25;;;;;;;11.83;52.73;102629.41;4987027;28;20034;-36
2023/05/18 05:49:34;;;;;;;9.07;1.95;;;;;;;11.85;52.72;102630.22;4997222;28;20029;-36
2023/05/18 05:51:59;;;;;;;7.55;1.88;;;;;;;11.84;52.74;102633.75;4999005;28;20034;-36
2023/05/18 05:54:25;;;;;;;16.15;2.15;;;;;;;11.86;52.83;102637.22;4982162;28;20030;-36
2023/05/18 05:56:53;;;;;;;8.95;1.85;;;;;;;11.89;52.77;102640.59;4982836;28;20066;-35
2023/05/18 05:59:19;;;;;;;12.45;2.05;;;;;;;11.90;52.76;102641.50;4979012;28;20495;-36
2023/05/18 06:01:47;;;;;;;10.88;2.15;;;;;;;11.98;52.87;102646.50;4984999;28;20034;-36
2023/05/18 06:04:18;;;;;;;8.50;1.98;;;;;;;12.05;52.76;102645.41;4980432;28;20022;-36
2023/05/18 06:06:43;;;;;;;11.05;2.10;;;;;;;12.12;52.60;102657.50;4978043;28;20062;-37
2023/05/18 06:09:09;;;;;;;12.40;3.08;;;;;;;12.16;52.89;102648.56;4977954;28;20054;-35
2023/05/18 06:11:40;;;;;;;5.63;1.63;;;;;;;12.19;52.86;102645.81;4977735;28;20560;-35
2023/05/18 06:14:06;;;;;;;8.18;1.55;;;;;;;12.27;52.83;102649.97;5002033;28;20061;-36
2023/05/18 06:16:34;;;;;;;13.23;2.08;;;;;;;12.33;53.10;102662.94;5000037;28;20060;-34
2023/05/18 06:19:03;;;;;;;7.90;2.80;;;;;;;12.39;52.84;102654.81;5002008;28;20451;-36
2023/05/18 06:21:30;;;;;;;15.40;3.63;;;;;;;12.42;52.89;102659.13;4986131;28;21020;-36
2023/05/18 06:23:56;;;;;;;12.77;2.30;;;;;;;12.46;53.00;102650.19;5000385;28;20087;-36
2023/05/18 06:26:22;;;;;;;11.02;2.63;;;;;;;12.52;52.80;102659.66;4999410;28;20385;-36
2023/05/18 06:28:48;;;;;;;12.20;2.35;;;;;;;12.54;52.95;102658.72;5002758;28;20378;-36
2023/05/18 06:31:20;;;;;;;7.13;1.63;;;;;;;12.54;52.91;102656.06;5000663;28;20503;-36
2023/05/18 06:33:46;;;;;;;2.97;0.98;;;;;;;12.48;53.04;102649.22;5002741;28;20033;-36
2023/05/18 06:36:11;;;;;;;8.02;2.70;;;;;;;12.52;53.11;102655.25;5001339;28;20034;-36
2023/05/18 06:38:37;;;;;;;8.13;1.52;;;;;;;12.55;53.04;102659.56;4984001;28;20061;-36
2023/05/18 06:41:05;;;;;;;7.85;1.95;;;;;;;12.57;52.87;102663.03;4972671;28;20029;-36
2023/05/18 06:43:30;;;;;;;9.45;1.92;;;;;;;12.63;52.87;102668.06;4983948;28;20109;-36
2023/05/18 06:45:56;;;;;;;12.35;2.83;;;;;;;12.63;52.94;102662.78;4970060;28;20124;-36
2023/05/18 06:48:25;;;;;;;14.38;4.35;;;;;;;12.63;53.21;102670.69;5001652;28;20393;-36
2023/05/18 06:50:53;;;;;;;11.60;2.00;;;;;;;12.64;53.18;102668.03;5002946;28;20126;-37
2023/05/18 06:53:19;;;;;;;5.95;1.70;;;;;;;12.67;53.19;102669.69;4998844;28;20988;-36
2023/05/18 06:55:44;;;;;;;10.40;1.80;;;;;;;12.73;53.14;102668.59;4985661;28;20129;-36
2023/05/18 06:58:10;;;;;;;9.70;4.18;;;;;;;12.71;53.36;102681.88;4973515;28;20124;-36
2023/05/18 07:00:37;;;;;;;8.65;2.33;;;;;;;12.69;53.59;102677.56;4997033;28;20076;-36
2023/05/18 07:03:02;;;;;;;9.68;1.70;;;;;;;12.71;53.55;102671.31;5000995;28;20072;-36
2023/05/18 07:05:29;;;;;;;7.18;1.58;;;;;;;12.77;53.60;102671.09;4971100;28;20037;-36
2023/05/18 07:07:54;;;;;;;5.90;1.88;;;;;;;12.85;53.38;102683.16;4982870;28;21911;-36
2023/05/18 07:10:21;;;;;;;15.15;1.95;;;;;;;12.91;53.28;102682.94;5000602;28;20022;-36
2023/05/18 07:12:47;;;;;;;7.85;2.47;;;;;;;12.95;53.26;102676.59;4997285;28;20064;-36
2023/05/18 07:15:13;;;;;;;15.95;6.10;;;;;;;13.02;53.15;102678.13;4975259;28;20487;-36
2023/05/18 07:17:39;;;;;;;11.73;3.33;;;;;;;13.05;53.11;102675.38;4980526;28;20033;-36
2023/05/18 07:20:09;;;;;;;9.05;3.25;;;;;;;13.07;53.16;102672.66;4983432;28;20026;-36
2023/05/18 07:22:35;;;;;;;17.80;3.60;;;;;;;13.05;53.61;102670.06;4999918;28;20026;-36
2023/05/18 07:25:03;;;;;;;6.95;2.83;;;;;;;13.13;53.22;102668.91;5000053;28;20033;-34
2023/05/18 07:27:29;;;;;;;15.32;4.68;;;;;;;13.17;53.32;102673.16;5000334;28;20528;-34
2023/05/18 07:29:54;;;;;;;20.52;6.22;;;;;;;13.28;52.97;102670.97;4970220;28;20038;-34
2023/05/18 07:32:20;;;;;;;11.55;3.65;;;;;;;13.36;52.77;102666.25;4983429;28;21084;-34
2023/05/18 07:34:46;;;;;;;10.88;3.83;;;;;;;13.43;52.68;102658.09;4998985;28;20046;-37
2023/05/18 07:37:12;;;;;;;13.70;3.15;;;;;;;13.49;52.50;102661.38;4999078;28;20045;-35
2023/05/18 07:39:38;;;;;;;10.23;3.05;;;;;;;13.54;52.68;102658.53;5000202;28;20041;-34
2023/05/18 07:42:05;;;;;;;14.93;2.53;;;;;;;13.59;52.12;102663.66;5004949;28;20026;-35
2023/05/18 07:44:35;;;;;;;12.43;2.20;;;;;;;13.69;51.89;102665.84;4995832;28;20125;-35
2023/05/18 07:47:04;;;;;;;13.38;2.75;;;;;;;13.87;51.60;102671.34;4995996;28;20049;-35
2023/05/18 07:49:33;;;;;;;10.63;2.03;;;;;;;14.05;51.41;102663.56;4980918;28;20033;-36
2023/05/18 07:51:59;;;;;;;6.15;2.42;;;;;;;14.23;50.93;102664.56;4977826;28;20600;-35
2023/05/18 07:54:27;;;;;;;8.15;1.27;;;;;;;14.41;50.38;102668.22;4982901;28;20034;-35
2023/05/18 07:56:53;;;;;;;7.20;1.60;;;;;;;14.53;49.78;102666.81;4996022;28;20057;-35
2023/05/18 07:59:19;;;;;;;8.50;1.83;;;;;;;14.69;48.97;102673.19;4996646;28;20061;-35
2023/05/18 08:01:44;;;;;;;8.55;1.20;;;;;;;14.78;47.79;102678.09;4985595;28;20113;-35
2023/05/18 08:04:15;;;;;;;6.82;2.20;;;;;;;14.89;46.75;102680.28;4976207;28;20364;-35
2023/05/18 08:06:41;;;;;;;9.50;1.80;;;;;;;14.99;45.87;102672.72;4997908;28;20721;-35
2023/05/18 08:09:07;;;;;;;8.48;1.25;;;;;;;15.09;45.71;102670.53;4980959;28;20030;-35
2023/05/18 08:11:32;;;;;;;10.15;1.50;;;;;;;15.19;45.59;102670.97;4975757;28;20045;-36
2023/05/18 08:14:01;;;;;;;10.75;1.38;;;;;;;15.26;44.99;102671.53;4977109;28;20512;-36
2023/05/18 08:16:26;;;;;;;4.53;1.25;;;;;;;15.32;44.93;102674.75;4989896;28;20053;-36
2023/05/18 08:18:52;;;;;;;5.38;1.65;;;;;;;15.36;44.80;102679.00;4962421;28;20034;-35
2023/05/18 08:21:18;;;;;;;10.93;2.30;;;;;;;15.41;44.43;102672.63;4965601;28;20509;-35
2023/05/18 08:23:43;;;;;;;9.95;2.22;;;;;;;15.45;44.28;102671.50;4963151;28;20096;-35
2023/05/18 08:26:11;;;;;;;8.10;1.50;;;;;;;15.45;44.25;102669.75;4977980;28;20021;-35
2023/05/18 08:28:37;;;;;;;4.10;1.45;;;;;;;15.55;44.03;102668.34;4977767;28;20125;-35
2023/05/18 08:31:03;;;;;;;7.25;1.35;;;;;;;15.63;44.01;102675.09;4975596;28;20400;-35
2023/05/18 08:33:28;;;;;;;12.45;2.47;;;;;;;15.69;43.83;102677.44;4999248;28;20026;-36
2023/05/18 08:35:56;;;;;;;9.05;1.23;;;;;;;15.67;43.29;102671.34;4982652;28;20030;-35
2023/05/18 08:38:22;;;;;;;8.25;1.48;;;;;;;15.65;43.18;102673.22;4979564;28;20061;-35
2023/05/18 08:40:50;;;;;;;6.72;1.20;;;;;;;15.57;42.92;102668.28;4983089;28;20040;-36
2023/05/18 08:43:27;;;;;;;15.98;6.40;;;;;;;15.53;42.43;102672.88;4999346;28;20511;-37
2023/05/18 08:46:16;;;;;;;7.68;1.40;;;;;;;15.43;41.21;102671.59;4989240;28;20040;-36
2023/05/18 08:48:50;;;;;;;6.35;1.60;;;;;;;15.41;42.39;102673.47;4986126;28;20623;-37
2023/05/18 08:51:19;;;;;;;7.85;1.17;;;;;;;15.37;42.05;102682.47;4993951;28;20030;-37
2023/05/18 08:53:51;;;;;;;10.02;1.35;;;;;;;15.34;41.82;102680.84;4995110;28;20033;-37
2023/05/18 08:56:21;;;;;;;;;;;;;;;15.33;40.96;102675.63;4999144;28;20504;-39
2023/05/18 08:58:49;;;;;;;6.97;1.33;;;;;;;15.32;42.13;102672.09;4995996;28;19921;-37
2023/05/18 09:01:16;;;;;;;4.82;1.63;;;;;;;15.30;42.11;102670.47;5013511;28;20022;-35
2023/05/18 09:03:50;;;;;;;6.80;1.35;;;;;;;15.32;41.73;102673.91;4974076;28;20095;-37
2023/05/18 09:06:17;;;;;;;3.85;1.30;;;;;;;15.31;41.81;102674.84;4987132;28;20030;-36
2023/05/18 09:08:51;;;;;;;8.32;0.90;;;;;;;15.27;41.91;102671.47;4988295;28;20034;-38
2023/05/18 09:11:18;;;;;;;4.55;1.38;;;;;;;15.32;41.75;102672.09;4988572;28;20032;-36
2023/05/18 09:13:45;;;;;;;5.88;1.30;;;;;;;15.38;41.67;102665.63;4973771;28;20037;-35
2023/05/18 09:16:11;;;;;;;8.38;1.75;;;;;;;15.46;41.66;102666.16;5000763;28;20036;-37
2023/05/18 09:18:39;;;;;;;3.83;1.00;;;;;;;15.58;41.35;102669.13;4995571;28;20034;-36
2023/05/18 09:21:05;;;;;;;5.80;1.40;;;;;;;15.63;41.28;102665.31;4972848;28;20045;-35
2023/05/18 09:23:32;;;;;;;5.68;2.38;;;;;;;15.67;40.96;102658.94;4974722;28;20399;-38
2023/05/18 09:25:58;;;;;;;8.40;1.10;;;;;;;15.66;41.06;102661.66;4969164;28;20049;-38
2023/05/18 09:28:36;;;;;;;6.22;1.15;;;;;;;15.70;41.02;102665.88;4974396;28;20025;-35
2023/05/18 09:31:03;;;;;;;5.57;1.40;;;;;;;15.75;41.17;102663.88;4999216;28;20039;-36
2023/05/18 09:33:39;;;;;;;3.67;0.90;;;;;;;15.78;40.72;102658.41;4976164;28;20045;-37
2023/05/18 09:36:06;;;;;;;5.43;1.48;;;;;;;15.82;40.77;102661.78;4989554;28;20472;-35
2023/05/18 09:38:44;;;;;;;8.18;1.38;;;;;;;15.83;39.86;102661.69;4970494;28;20050;-37
2023/05/18 09:41:15;;;;;;;8.38;3.55;;;;;;;15.80;40.46;102661.88;4986265;28;20038;-36
2023/05/18 09:43:45;;;;;;;16.05;6.00;;;;;;;15.87;40.54;102662.44;4994209;28;20033;-34
2023/05/18 09:46:14;;;;;;;7.80;1.60;;;;;;;15.92;40.36;102662.22;4997966;28;20129;-37
2023/05/18 09:48:48;;;;;;;16.45;1.70;;;;;;;15.95;40.05;102656.75;5001180;28;20030;-36
2023/05/18 09:51:17;;;;;;;9.80;1.15;;;;;;;16.01;39.96;102659.09;4988388;28;20033;-36
2023/05/18 09:53:48;;;;;;;7.82;0.98;;;;;;;16.10;39.50;102663.94;4977222;28;20076;-36
2023/05/18 09:56:17;;;;;;;3.75;1.00;;;;;;;16.13;39.40;102655.81;4997819;28;20141;-36
2023/05/18 09:58:43;;;;;;;4.97;1.13;;;;;;;16.14;39.50;102652.22;4981308;28;20041;-36
2023/05/18 10:01:15;;;;;;;7.43;1.13;;;;;;;16.22;39.47;102648.31;4994718;28;20029;-36
2023/05/18 10:03:43;;;;;;;6.30;1.00;;;;;;;16.31;39.42;102647.84;4978028;28;20099;-38
2023/05/18 10:06:16;;;;;;;5.40;1.10;;;;;;;16.38;39.48;102646.59;5002513;28;21110;-35
2023/05/18 10:08:42;;;;;;;8.70;1.65;;;;;;;16.46;39.53;102647.03;4963600;28;20041;-35
2023/05/18 10:11:08;;;;;;;5.88;1.10;;;;;;;16.55;39.19;102650.16;4973932;28;20048;-36
2023/05/18 10:13:34;;;;;;;19.83;2.08;;;;;;;16.59;39.28;102644.59;4964331;28;20034;-35
2023/05/18 10:16:02;;;;;;;2.90;1.20;;;;;;;16.63;38.93;102653.25;4994170;28;20685;-35
2023/05/18 10:18:30;;;;;;;12.18;3.90;;;;;;;16.66;38.77;102642.47;4993654;28;20022;-37
2023/05/18 10:20:58;;;;;;;6.03;1.42;;;;;;;16.63;38.46;102636.47;4989793;28;20400;-36
2023/05/18 10:23:28;;;;;;;6.30;1.45;;;;;;;16.63;38.48;102639.97;4995446;28;20030;-36
2023/05/18 10:25:53;;;;;;;5.00;1.42;;;;;;;16.66;38.51;102638.94;4994381;28;20495;-37
2023/05/18 10:28:32;;;;;;;3.75;1.35;;;;;;;16.69;38.63;102638.78;4972502;28;20052;-37
2023/05/18 10:31:03;;;;;;;6.70;1.55;;;;;;;16.71;38.67;102632.44;4993825;28;20041;-37
2023/05/18 10:33:35;;;;;;;6.80;1.60;;;;;;;16.75;38.63;102627.84;4994738;28;20033;-36
2023/05/18 10:36:03;;;;;;;3.78;1.17;;;;;;;16.79;38.61;102624.03;4993498;28;20583;-36
2023/05/18 10:38:29;;;;;;;6.07;1.58;;;;;;;16.80;38.92;102623.09;4997264;28;20040;-36
2023/05/18 10:40:57;;;;;;;11.82;1.73;;;;;;;16.83;38.68;102614.97;4974963;28;20620;-37
2023/05/18 10:43:27;;;;;;;2.88;1.00;;;;;;;16.82;38.20;102623.03;4973713;28;20500;-37
2023/05/18 10:45:58;;;;;;;6.88;1.10;;;;;;;16.79;37.83;102609.91;4979483;28;20128;-37
2023/05/18 10:48:28;;;;;;;;;;;;;;;16.72;37.29;102615.53;4988747;28;20112;-36
2023/05/18 10:50:57;;;;;;;3.45;1.00;;;;;;;16.67;38.02;102617.63;4991990;28;19919;-37
2023/05/18 10:53:25;;;;;;;11.75;3.42;;;;;;;16.61;38.21;102605.50;5002041;28;20382;-37
2023/05/18 10:55:57;;;;;;;5.65;1.15;;;;;;;16.58;38.20;102600.34;4987377;28;20044;-37
2023/05/18 10:58:25;;;;;;;4.50;1.20;;;;;;;16.58;38.27;102607.47;4995253;28;20022;-36
2023/05/18 11:00:54;;;;;;;6.20;1.25;;;;;;;16.59;38.32;102602.06;4982435;28;20076;-42
2023/05/18 11:03:25;;;;;;;6.38;1.50;;;;;;;16.57;38.33;102600.41;4982928;28;20037;-36
2023/05/18 11:06:09;;;;;;;4.80;0.82;;;;;;;16.65;37.99;102600.88;4993048;28;20489;-37
2023/05/18 11:08:50;;;;;;;7.00;1.17;;;;;;;16.72;37.92;102596.94;4992889;28;20126;-37
2023/05/18 11:11:28;;;;;;;5.03;1.13;;;;;;;16.81;37.72;102602.72;4976529;28;20365;-39
2023/05/18 11:14:02;;;;;;;4.32;1.00;;;;;;;16.89;37.74;102601.34;4974394;28;20217;-37
2023/05/18 11:16:35;;;;;;;5.53;1.23;;;;;;;17.01;37.82;102602.50;4997440;28;20121;-37
2023/05/18 11:19:10;;;;;;;3.70;0.88;;;;;;;17.13;37.89;102605.41;4987952;28;20029;-36
2023/05/18 11:21:35;;;;;;;5.05;1.45;;;;;;;17.21;37.84;102600.50;4969039;28;23061;-37
2023/05/18 11:24:26;;;;;;;5.68;1.63;;;;;;;17.26;36.97;102609.09;4976393;28;20033;-37
2023/05/18 11:27:09;;;;;;;4.93;1.27;;;;;;;17.29;37.45;102605.41;4980559;28;20480;-37
2023/05/18 11:29:43;;;;;;;5.55;1.10;;;;;;;17.34;37.16;102606.84;4977988;28;20041;-38